createdAt,value
2023-05-09T00:04:21.006Z,2.20
2023-05-09T00:09:23.750Z,2.22
2023-05-09T00:14:27.832Z,2.50
2023-05-09T00:19:30.818Z,2.45
2023-05-09T00:24:33.536Z,2.20
2023-05-09T00:29:37.734Z,2.30
2023-05-09T00:34:40.522Z,2.38
2023-05-09T00:39:43.223Z,2.35
2023-05-09T00:44:47.376Z,2.60
2023-05-09T00:49:50.530Z,2.53
2023-05-09T00:54:53.581Z,2.60
2023-05-09T00:59:58.253Z,2.65
2023-05-09T01:05:01.961Z,2.55
2023-05-09T01:10:12.878Z,2.78
2023-05-09T01:15:24.213Z,2.50
2023-05-09T01:20:34.453Z,2.60
2023-05-09T01:25:55.494Z,2.85
2023-05-09T01:30:59.886Z,2.85
2023-05-09T01:36:08.451Z,2.63
2023-05-09T01:41:14.965Z,3.00
2023-05-09T01:46:20.655Z,2.85
2023-05-09T01:51:25.382Z,2.83
2023-05-09T01:56:29.493Z,3.13
2023-05-09T02:01:33.972Z,3.25
2023-05-09T02:06:37.892Z,3.30
2023-05-09T02:11:40.941Z,3.25
2023-05-09T02:16:45.113Z,3.28
2023-05-09T02:21:48.283Z,3.17
2023-05-09T02:26:51.444Z,3.40
2023-05-09T02:31:56.119Z,3.80
2023-05-09T02:36:59.074Z,3.42
2023-05-09T02:42:07.874Z,3.53
2023-05-09T02:47:11.978Z,3.38
2023-05-09T02:52:14.989Z,5.40
2023-05-09T02:57:18.074Z,3.78
2023-05-09T03:02:23.665Z,3.55
2023-05-09T03:07:27.755Z,3.67
2023-05-09T03:12:30.568Z,4.15
2023-05-09T03:17:35.435Z,3.40
2023-05-09T03:22:38.367Z,3.72
2023-05-09T03:27:43.977Z,4.00
2023-05-09T03:32:51.625Z,4.00
2023-05-09T03:37:54.766Z,4.28
2023-05-09T03:42:57.745Z,4.50
2023-05-09T03:48:02.956Z,3.70
2023-05-09T03:53:06.462Z,3.83
2023-05-09T03:58:12.725Z,4.07
2023-05-09T04:03:19.610Z,3.88
2023-05-09T04:08:24.940Z,4.43
2023-05-09T04:13:28.162Z,4.03
2023-05-09T04:18:32.651Z,4.55
2023-05-09T04:23:36.170Z,4.60
2023-05-09T04:28:39.038Z,4.20
2023-05-09T04:33:43.749Z,4.63
2023-05-09T04:38:46.666Z,4.63
2023-05-09T04:43:53.716Z,4.47
2023-05-09T04:48:59.763Z,4.53
2023-05-09T04:54:02.716Z,4.60
2023-05-09T04:59:09.130Z,5.00
2023-05-09T05:04:13.283Z,4.40
2023-05-09T05:09:16.979Z,5.35
2023-05-09T05:14:19.845Z,5.63
2023-05-09T05:19:24.147Z,4.78
2023-05-09T05:24:27.152Z,4.85
2023-05-09T05:29:32.273Z,4.85
2023-05-09T05:34:36.645Z,5.10
2023-05-09T05:39:40.020Z,5.20
2023-05-09T05:44:43.168Z,4.75
2023-05-09T05:49:49.333Z,5.28
2023-05-09T05:54:52.670Z,4.63
2023-05-09T05:59:55.695Z,6.05
2023-05-09T06:05:00.181Z,4.75
2023-05-09T06:10:03.262Z,4.75
2023-05-09T06:15:07.371Z,5.20
2023-05-09T06:20:15.892Z,5.32
2023-05-09T06:25:18.746Z,5.40
2023-05-09T06:30:26.187Z,4.93
2023-05-09T06:35:31.233Z,4.97
2023-05-09T06:40:34.060Z,5.32
2023-05-09T06:45:37.067Z,5.00
2023-05-09T06:50:41.213Z,4.63
2023-05-09T06:55:44.083Z,4.78
2023-05-09T07:00:47.425Z,4.47
2023-05-09T07:05:52.442Z,4.80
2023-05-09T07:10:55.369Z,4.68
2023-05-09T07:15:58.339Z,4.55
2023-05-09T07:21:02.773Z,4.25
2023-05-09T07:26:05.899Z,4.40
2023-05-09T07:31:09.422Z,4.38
2023-05-09T07:36:16.151Z,3.90
2023-05-09T07:41:19.351Z,3.70
2023-05-09T07:46:22.213Z,4.10
2023-05-09T07:51:42.954Z,4.25
2023-05-09T07:56:45.893Z,4.05
2023-05-09T08:01:51.705Z,4.10
2023-05-09T08:06:55.887Z,5.18
2023-05-09T08:11:58.687Z,4.50
2023-05-09T08:17:01.494Z,4.38
2023-05-09T08:22:06.356Z,4.55
2023-05-09T08:27:09.457Z,4.70
2023-05-09T08:32:12.244Z,4.05
2023-05-09T08:37:16.486Z,4.43
2023-05-09T08:42:24.772Z,4.20
2023-05-09T08:47:29.792Z,3.85
2023-05-09T08:52:34.913Z,3.90
2023-05-09T08:57:38.365Z,3.85
2023-05-09T09:02:42.806Z,3.88
2023-05-09T09:07:47.653Z,4.13
2023-05-09T09:12:50.941Z,3.83
2023-05-09T09:17:56.528Z,3.53
2023-05-09T09:23:02.204Z,3.70
2023-05-09T09:28:05.842Z,4.13
2023-05-09T09:33:08.663Z,3.40
2023-05-09T09:38:12.800Z,3.40
2023-05-09T09:43:16.086Z,3.40
2023-05-09T09:48:19.313Z,3.65
2023-05-09T09:53:24.969Z,3.40
2023-05-09T09:58:28.045Z,3.70
2023-05-09T10:03:36.674Z,3.50
2023-05-09T10:08:41.136Z,3.33
2023-05-09T10:19:09.132Z,3.03
2023-05-09T10:30:41.138Z,3.80
2023-05-09T10:35:48.904Z,3.22
2023-05-09T10:53:41.364Z,2.88
2023-05-09T10:59:00.458Z,3.03
2023-05-09T11:04:10.075Z,3.33
2023-05-09T11:09:32.750Z,3.08
2023-05-09T11:14:42.452Z,2.88
2023-05-09T11:20:05.466Z,3.05
2023-05-09T11:25:10.390Z,2.95
2023-05-09T11:30:16.850Z,2.95
2023-05-09T11:35:21.387Z,3.00
2023-05-09T11:40:24.283Z,3.00
2023-05-09T11:45:30.276Z,3.38
2023-05-09T11:50:33.371Z,2.88
2023-05-09T11:55:38.905Z,3.13
2023-05-09T12:00:46.750Z,3.03
2023-05-09T12:10:52.526Z,3.00
2023-05-09T12:16:02.974Z,2.90
2023-05-09T12:21:07.157Z,3.38
2023-05-09T12:26:10.962Z,8.48
2023-05-09T12:31:15.563Z,8.90
2023-05-09T12:36:18.733Z,9.20
2023-05-09T12:41:34.799Z,13.93
2023-05-09T12:46:41.586Z,7.60
2023-05-09T12:51:49.588Z,6.90
2023-05-09T12:56:53.534Z,4.93
2023-05-09T13:02:00.048Z,3.72
2023-05-09T13:07:10.269Z,3.55
2023-05-09T13:12:13.125Z,3.88
2023-05-09T13:17:17.261Z,4.30
2023-05-09T13:22:19.997Z,3.50
2023-05-09T13:27:22.883Z,3.10
2023-05-09T13:32:27.318Z,2.60
2023-05-09T13:37:30.233Z,2.80
2023-05-09T13:42:35.303Z,2.80
2023-05-09T13:47:39.472Z,2.95
2023-05-09T13:52:42.273Z,2.97
2023-05-09T13:57:45.186Z,3.05
2023-05-09T14:02:49.769Z,2.70
2023-05-09T14:07:52.684Z,2.60
2023-05-09T14:12:57.021Z,3.28
2023-05-09T14:18:01.612Z,3.10
2023-05-09T14:23:04.605Z,2.88
2023-05-09T14:28:09.284Z,3.08
2023-05-09T14:33:14.412Z,3.17
2023-05-09T14:38:17.240Z,2.90
2023-05-09T14:43:20.223Z,2.78
2023-05-09T14:48:24.505Z,2.95
2023-05-09T14:53:28.607Z,2.65
2023-05-09T14:58:34.570Z,2.60
2023-05-09T15:03:39.360Z,2.38
2023-05-09T15:08:42.269Z,2.67
2023-05-09T15:13:45.057Z,2.70
2023-05-09T15:18:49.204Z,2.70
2023-05-09T15:23:51.941Z,2.60
2023-05-09T15:28:54.672Z,2.63
2023-05-09T15:34:01.397Z,2.50
2023-05-09T15:39:05.089Z,2.60
2023-05-09T15:44:08.211Z,2.40
2023-05-09T15:49:12.797Z,2.42
2023-05-09T15:54:15.662Z,2.45
2023-05-09T15:59:18.777Z,2.42
2023-05-09T16:04:23.136Z,3.17
2023-05-09T16:09:25.857Z,3.10
2023-05-09T16:14:28.766Z,2.38
2023-05-09T16:19:35.721Z,2.15
2023-05-09T16:24:38.696Z,2.40
2023-05-09T16:29:41.620Z,2.80
2023-05-09T16:34:45.676Z,2.00
2023-05-09T16:39:48.487Z,2.65
2023-05-09T16:44:51.249Z,2.45
2023-05-09T16:49:55.287Z,2.58
2023-05-09T16:54:59.319Z,2.30
2023-05-09T17:00:02.422Z,2.40
2023-05-09T17:05:07.566Z,2.55
2023-05-09T17:10:11.170Z,2.20
2023-05-09T17:15:13.976Z,2.10
2023-05-09T17:20:18.299Z,3.05
2023-05-09T17:25:21.260Z,2.22
2023-05-09T17:30:24.440Z,2.13
2023-05-09T17:35:28.612Z,2.10
2023-05-09T17:40:31.398Z,1.98
2023-05-09T17:45:34.222Z,1.90
2023-05-09T17:50:38.343Z,2.25
2023-05-09T17:55:42.541Z,2.20
2023-05-09T18:00:45.686Z,2.03
2023-05-09T18:05:50.546Z,2.40
2023-05-09T18:10:56.658Z,2.78
2023-05-09T18:16:00.683Z,2.15
2023-05-09T18:21:05.437Z,1.90
2023-05-09T18:26:08.822Z,1.98
2023-05-09T18:31:13.205Z,1.92
2023-05-09T18:36:20.584Z,2.33
2023-05-09T18:41:24.138Z,2.30
2023-05-09T18:46:27.994Z,2.40
2023-05-09T18:51:34.004Z,2.00
2023-05-09T18:56:39.332Z,2.10
2023-05-09T19:01:46.114Z,1.90
2023-05-09T19:06:50.870Z,2.00
2023-05-09T19:11:53.757Z,2.42
2023-05-09T19:16:56.692Z,2.08
2023-05-09T19:22:01.229Z,2.88
2023-05-09T19:27:05.120Z,2.97
2023-05-09T19:32:08.310Z,2.15
2023-05-09T19:37:15.510Z,2.53
2023-05-09T19:42:18.487Z,3.23
2023-05-09T19:47:21.345Z,1.95
2023-05-09T19:52:25.596Z,2.10
2023-05-09T19:57:28.666Z,1.98
2023-05-09T20:02:32.917Z,2.25
2023-05-09T20:07:37.184Z,2.17
2023-05-09T20:12:44.470Z,2.00
2023-05-09T20:17:54.249Z,2.10
2023-05-09T20:22:59.130Z,2.10
2023-05-09T20:28:03.863Z,2.05
2023-05-09T20:33:06.803Z,2.00
2023-05-09T20:38:11.134Z,1.95
2023-05-09T20:43:13.935Z,2.58
2023-05-09T20:48:17.113Z,2.25
2023-05-09T20:53:22.364Z,2.30
2023-05-09T20:58:25.165Z,2.25
2023-05-09T21:03:28.082Z,2.28
2023-05-09T21:08:36.678Z,2.33
2023-05-09T21:13:39.613Z,2.20
2023-05-09T21:18:42.490Z,2.10
2023-05-09T21:23:46.621Z,2.13
2023-05-09T21:28:49.421Z,2.40
2023-05-09T21:33:52.792Z,2.35
2023-05-09T21:38:56.952Z,2.35
2023-05-09T21:43:59.691Z,2.08
2023-05-09T21:49:02.815Z,2.20
2023-05-09T21:54:07.166Z,2.33
2023-05-09T21:59:10.038Z,2.22
2023-05-09T22:04:12.794Z,2.40
2023-05-09T22:09:16.921Z,2.40
2023-05-09T22:14:19.685Z,2.35
2023-05-09T22:19:22.493Z,2.28
2023-05-09T22:24:26.866Z,2.75
2023-05-09T22:29:29.626Z,2.40
2023-05-09T22:34:32.631Z,2.30
2023-05-09T22:39:36.739Z,2.58
2023-05-09T22:44:39.569Z,2.72
2023-05-09T22:49:44.019Z,2.60
2023-05-09T22:54:49.844Z,2.90
2023-05-09T22:59:53.219Z,2.70
2023-05-09T23:04:56.078Z,3.38
2023-05-09T23:10:00.490Z,3.22
2023-05-09T23:15:03.444Z,2.92
2023-05-09T23:20:07.546Z,2.92
2023-05-09T23:25:11.883Z,2.95
2023-05-09T23:30:15.005Z,3.13
2023-05-09T23:35:19.156Z,3.08
2023-05-09T23:40:23.580Z,3.50
2023-05-09T23:45:26.788Z,3.13
2023-05-09T23:50:29.526Z,2.85
2023-05-09T23:55:33.577Z,3.17
